createdAt,value
2023-01-03T00:03:59.704Z,101159.00
2023-01-03T00:09:04.655Z,101160.69
2023-01-03T00:14:05.403Z,101165.94
2023-01-03T00:19:09.621Z,101165.03
2023-01-03T00:24:12.267Z,101171.13
2023-01-03T00:29:13.328Z,101166.84
2023-01-03T00:34:14.112Z,101164.25
2023-01-03T00:39:16.225Z,101168.63
2023-01-03T00:44:17.048Z,101176.44
2023-01-03T00:49:17.922Z,101191.19
2023-01-03T00:54:19.985Z,101195.56
2023-01-03T00:59:22.473Z,101203.38
2023-01-03T01:04:26.350Z,101202.50
2023-01-03T01:09:30.629Z,101213.75
2023-01-03T01:14:33.409Z,101225.91
2023-01-03T01:19:37.468Z,101231.09
2023-01-03T01:24:40.116Z,101233.72
2023-01-03T01:29:40.869Z,101250.19
2023-01-03T01:34:41.609Z,101248.47
2023-01-03T01:39:43.751Z,101257.97
2023-01-03T01:44:55.647Z,101267.50
2023-01-03T01:50:02.321Z,101277.91
2023-01-03T01:55:07.760Z,101288.31
2023-01-03T02:00:10.674Z,101283.09
2023-01-03T02:05:19.738Z,101292.66
2023-01-03T02:10:47.981Z,101283.09
2023-01-03T02:16:01.521Z,101297.00
2023-01-03T02:21:30.207Z,101290.06
2023-01-03T02:26:56.364Z,101284.88
2023-01-03T02:32:04.360Z,101291.78
2023-01-03T02:37:16.018Z,101301.28
2023-01-03T02:42:40.768Z,101296.09
2023-01-03T02:47:50.232Z,101306.50
2023-01-03T02:52:54.029Z,101295.19
2023-01-03T02:58:03.318Z,101296.91
2023-01-03T03:03:09.800Z,101299.53
2023-01-03T03:08:10.615Z,101307.34
2023-01-03T03:13:17.147Z,101309.06
2023-01-03T03:18:23.280Z,101302.16
2023-01-03T03:23:47.591Z,101309.09
2023-01-03T03:28:51.658Z,101316.00
2023-01-03T03:34:00.198Z,101316.00
2023-01-03T03:39:01.356Z,101316.84
2023-01-03T03:44:23.473Z,101314.22
2023-01-03T03:49:40.785Z,101336.78
2023-01-03T03:54:45.353Z,101332.44
2023-01-03T03:59:50.855Z,101332.47
2023-01-03T04:04:59.062Z,101345.47
2023-01-03T04:09:59.896Z,101348.06
2023-01-03T04:15:00.559Z,101349.81
2023-01-03T04:20:02.586Z,101347.22
2023-01-03T04:25:03.305Z,101353.25
2023-01-03T04:30:04.627Z,101361.94
2023-01-03T04:35:07.295Z,101361.03
2023-01-03T04:40:08.947Z,101378.41
2023-01-03T04:45:11.127Z,101381.00
2023-01-03T04:50:15.840Z,101389.66
2023-01-03T04:55:16.940Z,101392.28
2023-01-03T05:00:18.014Z,101403.56
2023-01-03T05:05:20.001Z,101411.38
2023-01-03T05:10:20.777Z,101407.03
2023-01-03T05:15:21.481Z,101407.91
2023-01-03T05:20:41.675Z,101409.66
2023-01-03T05:25:51.512Z,101419.22
2023-01-03T05:30:52.236Z,101419.22
2023-01-03T05:35:54.237Z,101433.91
2023-01-03T05:40:54.878Z,101439.97
2023-01-03T05:45:55.622Z,101446.91
2023-01-03T05:50:59.259Z,101446.88
2023-01-03T05:56:05.536Z,101448.63
2023-01-03T06:01:10.138Z,101457.28
2023-01-03T06:06:13.723Z,101457.28
2023-01-03T06:11:16.668Z,101455.56
2023-01-03T06:16:36.896Z,101467.66
2023-01-03T06:21:41.398Z,101459.91
2023-01-03T06:26:42.123Z,101460.72
2023-01-03T06:31:42.801Z,101461.59
2023-01-03T06:36:44.758Z,101465.06
2023-01-03T06:41:45.434Z,101469.44
2023-01-03T06:47:03.908Z,101478.09
2023-01-03T06:52:29.920Z,101474.63
2023-01-03T06:57:30.610Z,101478.06
2023-01-03T07:02:31.418Z,101485.00
2023-01-03T07:07:33.668Z,101480.66
2023-01-03T07:12:54.208Z,101490.97
2023-01-03T07:17:56.346Z,101503.97
2023-01-03T07:22:58.381Z,101506.56
2023-01-03T07:28:05.791Z,101502.22
2023-01-03T07:33:09.267Z,101514.19
2023-01-03T07:38:13.350Z,101521.16
2023-01-03T07:43:31.794Z,101520.19
2023-01-03T07:48:32.581Z,101527.06
2023-01-03T07:53:35.558Z,101536.59
2023-01-03T07:58:36.554Z,101545.97
2023-01-03T08:03:38.346Z,101546.94
2023-01-03T08:08:40.833Z,101553.84
2023-01-03T08:13:41.960Z,101554.56
2023-01-03T08:18:43.391Z,101562.50
2023-01-03T08:23:45.730Z,101575.50
2023-01-03T08:28:46.516Z,101571.16
2023-01-03T08:33:52.838Z,101571.06
2023-01-03T08:38:58.727Z,101571.25
2023-01-03T08:44:01.740Z,101576.47
2023-01-03T08:49:02.484Z,101577.38
2023-01-03T08:54:04.574Z,101572.13
2023-01-03T08:59:05.357Z,101584.34
2023-01-03T09:04:06.315Z,101581.72
2023-01-03T09:09:09.641Z,101594.78
2023-01-03T09:14:10.407Z,101600.78
2023-01-03T09:19:11.101Z,101606.03
2023-01-03T09:24:13.193Z,101599.09
2023-01-03T09:29:14.100Z,101608.56
2023-01-03T09:34:14.876Z,101607.84
2023-01-03T09:39:16.898Z,101616.59
2023-01-03T09:44:17.978Z,101610.59
2023-01-03T09:49:18.649Z,101617.59
2023-01-03T09:54:48.434Z,101623.63
2023-01-03T10:00:06.657Z,101620.94
2023-01-03T10:05:46.166Z,101612.19
2023-01-03T10:10:59.047Z,101619.22
2023-01-03T10:16:08.038Z,101613.13
2023-01-03T10:21:14.530Z,101617.63
2023-01-03T10:26:16.623Z,101623.72
2023-01-03T10:31:29.360Z,101622.00
2023-01-03T10:36:30.070Z,101621.97
2023-01-03T10:41:39.648Z,101611.59
2023-01-03T10:46:50.787Z,101605.59
2023-01-03T10:51:56.468Z,101605.59
2023-01-03T10:56:58.533Z,101604.78
2023-01-03T11:02:02.378Z,101603.16
2023-01-03T11:07:13.452Z,101604.09
2023-01-03T11:12:30.044Z,101596.28
2023-01-03T11:17:30.987Z,101592.78
2023-01-03T11:22:39.835Z,101585.81
2023-01-03T11:27:59.509Z,101584.13
2023-01-03T11:33:14.385Z,101563.28
2023-01-03T11:38:31.763Z,101568.53
2023-01-03T11:43:47.566Z,101564.19
2023-01-03T11:49:11.460Z,101567.69
2023-01-03T11:54:29.332Z,101565.91
2023-01-03T11:59:52.825Z,101563.41
2023-01-03T12:05:07.582Z,101573.81
2023-01-03T12:10:17.263Z,101582.44
2023-01-03T12:15:24.032Z,101570.31
2023-01-03T12:20:29.206Z,101565.03
2023-01-03T12:25:33.473Z,101564.94
2023-01-03T12:30:42.635Z,101569.22
2023-01-03T12:35:49.309Z,101566.63
2023-01-03T12:40:56.072Z,101565.75
2023-01-03T12:46:12.077Z,101564.91
2023-01-03T12:51:16.317Z,101547.69
2023-01-03T12:56:46.221Z,101553.84
2023-01-03T13:01:54.205Z,101535.69
2023-01-03T13:07:03.162Z,101534.84
2023-01-03T13:12:08.603Z,101548.72
2023-01-03T13:17:17.407Z,101528.72
2023-01-03T13:22:47.382Z,101538.19
2023-01-03T13:27:51.700Z,101541.69
2023-01-03T13:33:04.604Z,101545.09
2023-01-03T13:38:33.056Z,101540.75
2023-01-03T13:43:39.773Z,101543.38
2023-01-03T13:48:54.859Z,101534.66
2023-01-03T13:54:00.259Z,101533.75
2023-01-03T13:59:10.383Z,101533.72
2023-01-03T14:04:42.498Z,101550.19
2023-01-03T14:10:14.065Z,101545.00
2023-01-03T14:15:25.342Z,101559.75
2023-01-03T14:20:32.069Z,101553.63
2023-01-03T14:25:35.599Z,101557.91
2023-01-03T14:30:37.484Z,101570.00
2023-01-03T14:35:41.912Z,101561.25
2023-01-03T14:40:48.342Z,101561.19
2023-01-03T14:45:54.135Z,101562.88
2023-01-03T14:50:56.878Z,101566.22
2023-01-03T14:55:58.963Z,101575.66
2023-01-03T15:01:02.044Z,101578.19
2023-01-03T15:06:18.235Z,101583.38
2023-01-03T15:11:32.221Z,101582.44
2023-01-03T15:16:36.418Z,101584.06
2023-01-03T15:21:39.980Z,101594.34
2023-01-03T15:26:46.195Z,101598.94
2023-01-03T15:31:49.678Z,101593.72
2023-01-03T15:36:56.246Z,101594.53
2023-01-03T15:47:38.876Z,101611.53
2023-01-03T15:52:41.078Z,101614.16
2023-01-03T15:57:50.413Z,101626.97
2023-01-03T16:02:51.592Z,101626.06
2023-01-03T16:07:53.833Z,101636.34
2023-01-03T16:12:54.521Z,101632.81
2023-01-03T16:17:55.299Z,101627.44
2023-01-03T16:23:01.449Z,101628.09
2023-01-03T16:28:07.025Z,101631.59
2023-01-03T16:33:19.343Z,101638.69
2023-01-03T16:38:23.338Z,101640.22
2023-01-03T16:43:25.169Z,101646.91
2023-01-03T16:48:29.868Z,101639.84
2023-01-03T16:53:37.380Z,101631.28
2023-01-03T16:58:38.512Z,101643.50
2023-01-03T17:03:42.006Z,101644.50
2023-01-03T17:09:16.286Z,101643.56
2023-01-03T17:14:21.839Z,101645.00
2023-01-03T17:24:51.087Z,101647.47
2023-01-03T17:30:00.375Z,101649.38
2023-01-03T17:35:03.116Z,101657.97
2023-01-03T17:40:07.266Z,101665.63
2023-01-03T17:45:29.772Z,101670.66
2023-01-03T17:50:32.224Z,101672.31
2023-01-03T17:55:34.333Z,101665.09
2023-01-03T18:00:35.813Z,101672.72
2023-01-03T18:05:36.704Z,101676.25
2023-01-03T18:10:46.503Z,101679.59
2023-01-03T18:15:47.813Z,101683.19
2023-01-03T18:20:48.945Z,101677.19
2023-01-03T18:25:52.260Z,101677.31
2023-01-03T18:30:53.734Z,101680.00
2023-01-03T18:35:54.897Z,101675.31
2023-01-03T18:41:04.326Z,101682.13
2023-01-03T18:46:11.941Z,101684.53
2023-01-03T18:51:15.951Z,101690.50
2023-01-03T18:56:28.334Z,101691.22
2023-01-03T19:01:29.189Z,101692.78
2023-01-03T19:06:33.223Z,101691.94
2023-01-03T19:11:38.569Z,101695.31
2023-01-03T19:16:40.523Z,101697.00
2023-01-03T19:21:44.347Z,101689.28
2023-01-03T19:26:52.912Z,101681.50
2023-01-03T19:31:56.322Z,101671.94
2023-01-03T19:36:58.874Z,101688.13
2023-01-03T19:42:18.683Z,101676.66
2023-01-03T19:47:20.935Z,101691.13
2023-01-03T19:52:21.806Z,101686.69
2023-01-03T19:57:30.188Z,101688.38
2023-01-03T20:02:39.260Z,101675.44
2023-01-03T20:07:40.894Z,101672.75
2023-01-03T20:12:43.313Z,101680.47
2023-01-03T20:17:45.163Z,101668.38
2023-01-03T20:23:04.745Z,101690.72
2023-01-03T20:28:08.285Z,101677.31
2023-01-03T20:33:09.010Z,101676.53
2023-01-03T20:38:12.365Z,101669.69
2023-01-03T20:43:17.292Z,101672.22
2023-01-03T20:48:25.060Z,101670.53
2023-01-03T20:53:28.075Z,101662.75
2023-01-03T20:58:30.131Z,101657.69
2023-01-03T21:03:30.872Z,101662.81
2023-01-03T21:08:49.627Z,101655.16
2023-01-03T21:13:52.015Z,101656.75
2023-01-03T21:18:53.855Z,101655.75
2023-01-03T21:23:55.436Z,101660.31
2023-01-03T21:28:57.977Z,101644.06
2023-01-03T21:33:58.711Z,101631.94
2023-01-03T21:39:00.609Z,101630.41
2023-01-03T21:44:04.391Z,101636.44
2023-01-03T21:49:05.105Z,101640.72
2023-01-03T21:54:06.585Z,101631.09
2023-01-03T21:59:08.591Z,101624.94
2023-01-03T22:04:19.556Z,101617.72
2023-01-03T22:09:37.976Z,101625.09
2023-01-03T22:14:40.130Z,101619.53
2023-01-03T22:19:40.928Z,101616.81
2023-01-03T22:24:41.712Z,101630.38
2023-01-03T22:29:43.816Z,101629.34
2023-01-03T22:34:44.514Z,101622.41
2023-01-03T22:39:45.327Z,101622.53
2023-01-03T22:44:47.543Z,101618.34
2023-01-03T22:49:48.978Z,101607.19
2023-01-03T22:54:49.952Z,101621.00
2023-01-03T22:59:52.007Z,101622.66
2023-01-03T23:04:52.671Z,101615.41
2023-01-03T23:09:53.350Z,101610.78
2023-01-03T23:14:55.345Z,101614.13
2023-01-03T23:19:56.072Z,101603.47
2023-01-03T23:24:58.094Z,101588.72
2023-01-03T23:30:00.120Z,101587.72
2023-01-03T23:35:00.829Z,101584.13
2023-01-03T23:40:01.547Z,101584.75
2023-01-03T23:45:03.602Z,101587.19
2023-01-03T23:50:04.543Z,101579.47
2023-01-03T23:55:12.211Z,101574.41
